<?xml version="1.0" encoding="UTF-8"?>
<gpx creator="Wikiloc - https://www.wikiloc.com" version="1.1" xmlns="http://www.topografix.com/GPX/1/1" xmlns:xsi="http://www.w3.org/2001/XMLSchema-instance" xsi:schemaLocation="http://www.topografix.com/GPX/1/1 http://www.topografix.com/GPX/1/1/gpx.xsd">
  <metadata>
    <name>Wikiloc - Refugio de Vegarredonda</name>
    <author>
      <name>Águeda</name>
      <link href="https://www.wikiloc.com/wikiloc/user.do?id=129065">
        <text>Águeda on Wikiloc</text>
      </link>
    </author>
    <link href="https://www.wikiloc.com/hiking-trails/refugio-de-vegarredonda-93741051">
      <text>Refugio de Vegarredonda on Wikiloc</text>
    </link>
    <time>2022-01-27T11:11:54Z</time>
  </metadata>
  <wpt lat="43.261234" lon="-5.009312">
    <ele>1070.1</ele>
    <time>2022-01-27T11:11:54Z</time>
    <name>Aparcamiento Pan de Carmen</name>
    <cmt></cmt>
    <desc></desc>
  </wpt>
  <wpt lat="43.256517" lon="-5.007239">
    <ele>1062.9</ele>
    <time>2022-01-27T11:11:54Z</time>
    <name>Vega del Huerto</name>
    <cmt></cmt>
    <desc></desc>
  </wpt>
  <wpt lat="43.255786" lon="-5.007154">
    <ele>1066.9</ele>
    <time>2022-01-27T11:11:54Z</time>
    <name>A. Pozo del Alemán</name>
    <cmt></cmt>
    <desc></desc>
  </wpt>
  <wpt lat="43.255201" lon="-5.010005">
    <ele>1128.6</ele>
    <time>2022-01-27T11:11:54Z</time>
    <name>B. Vega de la Piedra</name>
    <cmt></cmt>
    <desc></desc>
  </wpt>
  <wpt lat="43.250659" lon="-5.005753">
    <ele>1228.1</ele>
    <time>2022-01-27T11:11:54Z</time>
    <name>C. Vega de Canrasu</name>
    <cmt></cmt>
    <desc></desc>
  </wpt>
  <wpt lat="43.242864" lon="-4.995473">
    <ele>1373.3</ele>
    <time>2022-01-27T11:11:54Z</time>
    <name>D. Majada de Redondiella</name>
    <cmt></cmt>
    <desc></desc>
  </wpt>
  <wpt lat="43.238228" lon="-4.993481">
    <ele>1462.8</ele>
    <time>2022-01-27T11:11:54Z</time>
    <name>E. Collado Gamonal</name>
    <cmt></cmt>
    <desc></desc>
  </wpt>
  <wpt lat="43.234442" lon="-4.992864">
    <ele>1459.0</ele>
    <time>2022-01-27T11:11:54Z</time>
    <name>F. Refugio Vegarradonda</name>
    <cmt></cmt>
    <desc></desc>
  </wpt>
  <trk>
    <name>Refugio de Vegarredonda</name>
    <cmt></cmt>
    <desc></desc>
    <trkseg>
      <trkpt lat="43.261187" lon="-5.009307">
        <ele>1069.998</ele>
        <time>2022-01-27T11:11:55Z</time>
      </trkpt>
      <trkpt lat="43.260786" lon="-5.009253">
        <ele>1069.615</ele>
        <time>2022-01-27T11:12:35Z</time>
      </trkpt>
      <trkpt lat="43.260649" lon="-5.009281">
        <ele>1069.726</ele>
        <time>2022-01-27T11:13:15Z</time>
      </trkpt>
      <trkpt lat="43.260578" lon="-5.009323">
        <ele>1069.208</ele>
        <time>2022-01-27T11:13:55Z</time>
      </trkpt>
      <trkpt lat="43.260516" lon="-5.009431">
        <ele>1068.488</ele>
        <time>2022-01-27T11:14:35Z</time>
      </trkpt>
      <trkpt lat="43.260445" lon="-5.009575">
        <ele>1067.082</ele>
        <time>2022-01-27T11:15:15Z</time>
      </trkpt>
      <trkpt lat="43.260385" lon="-5.009671">
        <ele>1066.056</ele>
        <time>2022-01-27T11:15:55Z</time>
      </trkpt>
      <trkpt lat="43.260340" lon="-5.009759">
        <ele>1064.263</ele>
        <time>2022-01-27T11:16:35Z</time>
      </trkpt>
      <trkpt lat="43.260246" lon="-5.009777">
        <ele>1064.610</ele>
        <time>2022-01-27T11:17:15Z</time>
      </trkpt>
      <trkpt lat="43.260094" lon="-5.009756">
        <ele>1065.569</ele>
        <time>2022-01-27T11:17:55Z</time>
      </trkpt>
      <trkpt lat="43.259929" lon="-5.009720">
        <ele>1066.654</ele>
        <time>2022-01-27T11:18:35Z</time>
      </trkpt>
      <trkpt lat="43.259791" lon="-5.009682">
        <ele>1067.130</ele>
        <time>2022-01-27T11:19:15Z</time>
      </trkpt>
      <trkpt lat="43.259648" lon="-5.009658">
        <ele>1067.222</ele>
        <time>2022-01-27T11:19:55Z</time>
      </trkpt>
      <trkpt lat="43.259543" lon="-5.009613">
        <ele>1068.162</ele>
        <time>2022-01-27T11:20:35Z</time>
      </trkpt>
      <trkpt lat="43.259384" lon="-5.009517">
        <ele>1069.708</ele>
        <time>2022-01-27T11:21:15Z</time>
      </trkpt>
      <trkpt lat="43.259347" lon="-5.009523">
        <ele>1069.808</ele>
        <time>2022-01-27T11:21:55Z</time>
      </trkpt>
      <trkpt lat="43.259283" lon="-5.009541">
        <ele>1069.981</ele>
        <time>2022-01-27T11:22:35Z</time>
      </trkpt>
      <trkpt lat="43.259196" lon="-5.009586">
        <ele>1070.275</ele>
        <time>2022-01-27T11:23:15Z</time>
      </trkpt>
      <trkpt lat="43.259106" lon="-5.009666">
        <ele>1070.929</ele>
        <time>2022-01-27T11:23:55Z</time>
      </trkpt>
      <trkpt lat="43.259014" lon="-5.009717">
        <ele>1071.726</ele>
        <time>2022-01-27T11:24:35Z</time>
      </trkpt>
      <trkpt lat="43.258925" lon="-5.009675">
        <ele>1072.833</ele>
        <time>2022-01-27T11:25:15Z</time>
      </trkpt>
      <trkpt lat="43.258848" lon="-5.009647">
        <ele>1072.692</ele>
        <time>2022-01-27T11:25:55Z</time>
      </trkpt>
      <trkpt lat="43.258689" lon="-5.009556">
        <ele>1069.927</ele>
        <time>2022-01-27T11:26:35Z</time>
      </trkpt>
      <trkpt lat="43.258528" lon="-5.009410">
        <ele>1067.273</ele>
        <time>2022-01-27T11:27:15Z</time>
      </trkpt>
      <trkpt lat="43.258368" lon="-5.009266">
        <ele>1066.957</ele>
        <time>2022-01-27T11:27:55Z</time>
      </trkpt>
      <trkpt lat="43.258254" lon="-5.009175">
        <ele>1067.000</ele>
        <time>2022-01-27T11:28:35Z</time>
      </trkpt>
      <trkpt lat="43.258121" lon="-5.009096">
        <ele>1067.020</ele>
        <time>2022-01-27T11:29:15Z</time>
      </trkpt>
      <trkpt lat="43.258009" lon="-5.008991">
        <ele>1067.808</ele>
        <time>2022-01-27T11:29:55Z</time>
      </trkpt>
      <trkpt lat="43.257922" lon="-5.008804">
        <ele>1070.424</ele>
        <time>2022-01-27T11:30:35Z</time>
      </trkpt>
      <trkpt lat="43.257850" lon="-5.008744">
        <ele>1070.278</ele>
        <time>2022-01-27T11:31:15Z</time>
      </trkpt>
      <trkpt lat="43.257747" lon="-5.008682">
        <ele>1069.082</ele>
        <time>2022-01-27T11:31:55Z</time>
      </trkpt>
      <trkpt lat="43.257619" lon="-5.008650">
        <ele>1069.119</ele>
        <time>2022-01-27T11:32:35Z</time>
      </trkpt>
      <trkpt lat="43.257453" lon="-5.008578">
        <ele>1069.166</ele>
        <time>2022-01-27T11:33:15Z</time>
      </trkpt>
      <trkpt lat="43.257364" lon="-5.008494">
        <ele>1069.535</ele>
        <time>2022-01-27T11:33:55Z</time>
      </trkpt>
      <trkpt lat="43.257224" lon="-5.008443">
        <ele>1068.880</ele>
        <time>2022-01-27T11:34:35Z</time>
      </trkpt>
      <trkpt lat="43.257152" lon="-5.008341">
        <ele>1069.676</ele>
        <time>2022-01-27T11:35:15Z</time>
      </trkpt>
      <trkpt lat="43.257097" lon="-5.008209">
        <ele>1070.942</ele>
        <time>2022-01-27T11:35:55Z</time>
      </trkpt>
      <trkpt lat="43.257049" lon="-5.008043">
        <ele>1072.222</ele>
        <time>2022-01-27T11:36:35Z</time>
      </trkpt>
      <trkpt lat="43.256974" lon="-5.007937">
        <ele>1071.614</ele>
        <time>2022-01-27T11:37:15Z</time>
      </trkpt>
      <trkpt lat="43.256889" lon="-5.007870">
        <ele>1070.008</ele>
        <time>2022-01-27T11:37:55Z</time>
      </trkpt>
      <trkpt lat="43.256834" lon="-5.007832">
        <ele>1069.093</ele>
        <time>2022-01-27T11:38:35Z</time>
      </trkpt>
      <trkpt lat="43.256669" lon="-5.007739">
        <ele>1065.667</ele>
        <time>2022-01-27T11:39:15Z</time>
      </trkpt>
      <trkpt lat="43.256564" lon="-5.007693">
        <ele>1064.111</ele>
        <time>2022-01-27T11:39:55Z</time>
      </trkpt>
      <trkpt lat="43.256429" lon="-5.007660">
        <ele>1062.598</ele>
        <time>2022-01-27T11:40:35Z</time>
      </trkpt>
      <trkpt lat="43.256296" lon="-5.007592">
        <ele>1061.755</ele>
        <time>2022-01-27T11:41:15Z</time>
      </trkpt>
      <trkpt lat="43.256134" lon="-5.007452">
        <ele>1062.264</ele>
        <time>2022-01-27T11:41:55Z</time>
      </trkpt>
      <trkpt lat="43.256056" lon="-5.007305">
        <ele>1063.889</ele>
        <time>2022-01-27T11:42:35Z</time>
      </trkpt>
      <trkpt lat="43.255960" lon="-5.007159">
        <ele>1064.865</ele>
        <time>2022-01-27T11:43:15Z</time>
      </trkpt>
      <trkpt lat="43.255878" lon="-5.006977">
        <ele>1065.713</ele>
        <time>2022-01-27T11:43:55Z</time>
      </trkpt>
      <trkpt lat="43.255845" lon="-5.006931">
        <ele>1066.143</ele>
        <time>2022-01-27T11:44:35Z</time>
      </trkpt>
      <trkpt lat="43.255782" lon="-5.006955">
        <ele>1067.107</ele>
        <time>2022-01-27T11:45:15Z</time>
      </trkpt>
      <trkpt lat="43.255723" lon="-5.007011">
        <ele>1068.608</ele>
        <time>2022-01-27T11:45:55Z</time>
      </trkpt>
      <trkpt lat="43.255676" lon="-5.006994">
        <ele>1069.740</ele>
        <time>2022-01-27T11:46:35Z</time>
      </trkpt>
      <trkpt lat="43.255591" lon="-5.006863">
        <ele>1070.644</ele>
        <time>2022-01-27T11:47:15Z</time>
      </trkpt>
      <trkpt lat="43.255487" lon="-5.006704">
        <ele>1072.228</ele>
        <time>2022-01-27T11:47:55Z</time>
      </trkpt>
      <trkpt lat="43.255367" lon="-5.006571">
        <ele>1075.425</ele>
        <time>2022-01-27T11:48:35Z</time>
      </trkpt>
      <trkpt lat="43.255286" lon="-5.006488">
        <ele>1076.642</ele>
        <time>2022-01-27T11:49:15Z</time>
      </trkpt>
      <trkpt lat="43.255223" lon="-5.006392">
        <ele>1077.611</ele>
        <time>2022-01-27T11:49:55Z</time>
      </trkpt>
      <trkpt lat="43.255150" lon="-5.006278">
        <ele>1079.646</ele>
        <time>2022-01-27T11:50:35Z</time>
      </trkpt>
      <trkpt lat="43.255121" lon="-5.006182">
        <ele>1079.812</ele>
        <time>2022-01-27T11:51:15Z</time>
      </trkpt>
      <trkpt lat="43.255071" lon="-5.006131">
        <ele>1081.797</ele>
        <time>2022-01-27T11:51:55Z</time>
      </trkpt>
      <trkpt lat="43.255027" lon="-5.006131">
        <ele>1083.923</ele>
        <time>2022-01-27T11:52:35Z</time>
      </trkpt>
      <trkpt lat="43.255004" lon="-5.006198">
        <ele>1085.725</ele>
        <time>2022-01-27T11:53:15Z</time>
      </trkpt>
      <trkpt lat="43.255004" lon="-5.006329">
        <ele>1087.208</ele>
        <time>2022-01-27T11:53:55Z</time>
      </trkpt>
      <trkpt lat="43.255025" lon="-5.006451">
        <ele>1087.758</ele>
        <time>2022-01-27T11:54:35Z</time>
      </trkpt>
      <trkpt lat="43.255079" lon="-5.006616">
        <ele>1087.812</ele>
        <time>2022-01-27T11:55:15Z</time>
      </trkpt>
      <trkpt lat="43.255120" lon="-5.006747">
        <ele>1088.166</ele>
        <time>2022-01-27T11:55:55Z</time>
      </trkpt>
      <trkpt lat="43.255166" lon="-5.006932">
        <ele>1089.013</ele>
        <time>2022-01-27T11:56:35Z</time>
      </trkpt>
      <trkpt lat="43.255163" lon="-5.007106">
        <ele>1091.130</ele>
        <time>2022-01-27T11:57:15Z</time>
      </trkpt>
      <trkpt lat="43.255184" lon="-5.007357">
        <ele>1093.359</ele>
        <time>2022-01-27T11:57:55Z</time>
      </trkpt>
      <trkpt lat="43.255188" lon="-5.007516">
        <ele>1095.534</ele>
        <time>2022-01-27T11:58:35Z</time>
      </trkpt>
      <trkpt lat="43.255197" lon="-5.007711">
        <ele>1098.350</ele>
        <time>2022-01-27T11:59:15Z</time>
      </trkpt>
      <trkpt lat="43.255215" lon="-5.007841">
        <ele>1099.297</ele>
        <time>2022-01-27T11:59:55Z</time>
      </trkpt>
      <trkpt lat="43.255296" lon="-5.008093">
        <ele>1098.523</ele>
        <time>2022-01-27T12:00:35Z</time>
      </trkpt>
      <trkpt lat="43.255305" lon="-5.008238">
        <ele>1099.625</ele>
        <time>2022-01-27T12:01:15Z</time>
      </trkpt>
      <trkpt lat="43.255311" lon="-5.008351">
        <ele>1100.408</ele>
        <time>2022-01-27T12:01:55Z</time>
      </trkpt>
      <trkpt lat="43.255293" lon="-5.008427">
        <ele>1101.378</ele>
        <time>2022-01-27T12:02:35Z</time>
      </trkpt>
      <trkpt lat="43.255234" lon="-5.008601">
        <ele>1105.022</ele>
        <time>2022-01-27T12:03:15Z</time>
      </trkpt>
      <trkpt lat="43.255218" lon="-5.008682">
        <ele>1107.156</ele>
        <time>2022-01-27T12:03:55Z</time>
      </trkpt>
      <trkpt lat="43.255218" lon="-5.008786">
        <ele>1108.563</ele>
        <time>2022-01-27T12:04:35Z</time>
      </trkpt>
      <trkpt lat="43.255240" lon="-5.008861">
        <ele>1108.160</ele>
        <time>2022-01-27T12:05:15Z</time>
      </trkpt>
      <trkpt lat="43.255242" lon="-5.008963">
        <ele>1109.879</ele>
        <time>2022-01-27T12:05:55Z</time>
      </trkpt>
      <trkpt lat="43.255296" lon="-5.009082">
        <ele>1109.964</ele>
        <time>2022-01-27T12:06:35Z</time>
      </trkpt>
      <trkpt lat="43.255326" lon="-5.009151">
        <ele>1111.060</ele>
        <time>2022-01-27T12:07:15Z</time>
      </trkpt>
      <trkpt lat="43.255347" lon="-5.009292">
        <ele>1113.543</ele>
        <time>2022-01-27T12:07:55Z</time>
      </trkpt>
      <trkpt lat="43.255359" lon="-5.009370">
        <ele>1114.864</ele>
        <time>2022-01-27T12:08:35Z</time>
      </trkpt>
      <trkpt lat="43.255428" lon="-5.009401">
        <ele>1114.010</ele>
        <time>2022-01-27T12:09:15Z</time>
      </trkpt>
      <trkpt lat="43.255500" lon="-5.009417">
        <ele>1112.808</ele>
        <time>2022-01-27T12:09:55Z</time>
      </trkpt>
      <trkpt lat="43.255548" lon="-5.009440">
        <ele>1112.163</ele>
        <time>2022-01-27T12:10:35Z</time>
      </trkpt>
      <trkpt lat="43.255574" lon="-5.009504">
        <ele>1113.077</ele>
        <time>2022-01-27T12:11:15Z</time>
      </trkpt>
      <trkpt lat="43.255554" lon="-5.009605">
        <ele>1115.521</ele>
        <time>2022-01-27T12:11:55Z</time>
      </trkpt>
      <trkpt lat="43.255498" lon="-5.009651">
        <ele>1117.678</ele>
        <time>2022-01-27T12:12:35Z</time>
      </trkpt>
      <trkpt lat="43.255426" lon="-5.009678">
        <ele>1119.545</ele>
        <time>2022-01-27T12:13:15Z</time>
      </trkpt>
      <trkpt lat="43.255342" lon="-5.009672">
        <ele>1120.954</ele>
        <time>2022-01-27T12:13:55Z</time>
      </trkpt>
      <trkpt lat="43.255245" lon="-5.009637">
        <ele>1122.049</ele>
        <time>2022-01-27T12:14:35Z</time>
      </trkpt>
      <trkpt lat="43.255165" lon="-5.009625">
        <ele>1123.345</ele>
        <time>2022-01-27T12:15:15Z</time>
      </trkpt>
      <trkpt lat="43.255096" lon="-5.009655">
        <ele>1124.939</ele>
        <time>2022-01-27T12:15:55Z</time>
      </trkpt>
      <trkpt lat="43.255059" lon="-5.009688">
        <ele>1125.801</ele>
        <time>2022-01-27T12:16:35Z</time>
      </trkpt>
      <trkpt lat="43.255027" lon="-5.009732">
        <ele>1126.721</ele>
        <time>2022-01-27T12:17:15Z</time>
      </trkpt>
      <trkpt lat="43.255014" lon="-5.009849">
        <ele>1128.208</ele>
        <time>2022-01-27T12:17:55Z</time>
      </trkpt>
      <trkpt lat="43.255088" lon="-5.010072">
        <ele>1130.232</ele>
        <time>2022-01-27T12:18:35Z</time>
      </trkpt>
      <trkpt lat="43.255100" lon="-5.010166">
        <ele>1131.386</ele>
        <time>2022-01-27T12:19:15Z</time>
      </trkpt>
      <trkpt lat="43.255143" lon="-5.010445">
        <ele>1134.080</ele>
        <time>2022-01-27T12:19:55Z</time>
      </trkpt>
      <trkpt lat="43.255158" lon="-5.010596">
        <ele>1135.347</ele>
        <time>2022-01-27T12:20:35Z</time>
      </trkpt>
      <trkpt lat="43.255138" lon="-5.010714">
        <ele>1136.454</ele>
        <time>2022-01-27T12:21:15Z</time>
      </trkpt>
      <trkpt lat="43.255116" lon="-5.010793">
        <ele>1137.693</ele>
        <time>2022-01-27T12:21:55Z</time>
      </trkpt>
      <trkpt lat="43.255094" lon="-5.010831">
        <ele>1138.628</ele>
        <time>2022-01-27T12:22:35Z</time>
      </trkpt>
      <trkpt lat="43.255012" lon="-5.010756">
        <ele>1139.174</ele>
        <time>2022-01-27T12:23:15Z</time>
      </trkpt>
      <trkpt lat="43.254905" lon="-5.010683">
        <ele>1141.387</ele>
        <time>2022-01-27T12:23:55Z</time>
      </trkpt>
      <trkpt lat="43.254777" lon="-5.010610">
        <ele>1143.942</ele>
        <time>2022-01-27T12:24:35Z</time>
      </trkpt>
      <trkpt lat="43.254721" lon="-5.010566">
        <ele>1144.426</ele>
        <time>2022-01-27T12:25:15Z</time>
      </trkpt>
      <trkpt lat="43.254494" lon="-5.010357">
        <ele>1149.508</ele>
        <time>2022-01-27T12:25:55Z</time>
      </trkpt>
      <trkpt lat="43.254172" lon="-5.010040">
        <ele>1154.837</ele>
        <time>2022-01-27T12:26:35Z</time>
      </trkpt>
      <trkpt lat="43.254089" lon="-5.009947">
        <ele>1157.071</ele>
        <time>2022-01-27T12:27:15Z</time>
      </trkpt>
      <trkpt lat="43.254035" lon="-5.009826">
        <ele>1158.035</ele>
        <time>2022-01-27T12:27:55Z</time>
      </trkpt>
      <trkpt lat="43.253980" lon="-5.009693">
        <ele>1159.392</ele>
        <time>2022-01-27T12:28:35Z</time>
      </trkpt>
      <trkpt lat="43.253944" lon="-5.009497">
        <ele>1161.969</ele>
        <time>2022-01-27T12:29:15Z</time>
      </trkpt>
      <trkpt lat="43.253950" lon="-5.009408">
        <ele>1162.478</ele>
        <time>2022-01-27T12:29:55Z</time>
      </trkpt>
      <trkpt lat="43.253967" lon="-5.009287">
        <ele>1163.493</ele>
        <time>2022-01-27T12:30:35Z</time>
      </trkpt>
      <trkpt lat="43.254001" lon="-5.009190">
        <ele>1164.099</ele>
        <time>2022-01-27T12:31:15Z</time>
      </trkpt>
      <trkpt lat="43.254040" lon="-5.009064">
        <ele>1163.624</ele>
        <time>2022-01-27T12:31:55Z</time>
      </trkpt>
      <trkpt lat="43.254039" lon="-5.008953">
        <ele>1163.404</ele>
        <time>2022-01-27T12:32:35Z</time>
      </trkpt>
      <trkpt lat="43.253944" lon="-5.008823">
        <ele>1164.514</ele>
        <time>2022-01-27T12:33:15Z</time>
      </trkpt>
      <trkpt lat="43.253887" lon="-5.008804">
        <ele>1165.408</ele>
        <time>2022-01-27T12:33:55Z</time>
      </trkpt>
      <trkpt lat="43.253837" lon="-5.008839">
        <ele>1167.011</ele>
        <time>2022-01-27T12:34:35Z</time>
      </trkpt>
      <trkpt lat="43.253787" lon="-5.008897">
        <ele>1168.615</ele>
        <time>2022-01-27T12:35:15Z</time>
      </trkpt>
      <trkpt lat="43.253718" lon="-5.009071">
        <ele>1170.359</ele>
        <time>2022-01-27T12:35:55Z</time>
      </trkpt>
      <trkpt lat="43.253673" lon="-5.009257">
        <ele>1171.556</ele>
        <time>2022-01-27T12:36:35Z</time>
      </trkpt>
      <trkpt lat="43.253665" lon="-5.009377">
        <ele>1172.083</ele>
        <time>2022-01-27T12:37:15Z</time>
      </trkpt>
      <trkpt lat="43.253640" lon="-5.009531">
        <ele>1173.582</ele>
        <time>2022-01-27T12:37:55Z</time>
      </trkpt>
      <trkpt lat="43.253600" lon="-5.009584">
        <ele>1175.647</ele>
        <time>2022-01-27T12:38:35Z</time>
      </trkpt>
      <trkpt lat="43.253565" lon="-5.009572">
        <ele>1177.333</ele>
        <time>2022-01-27T12:39:15Z</time>
      </trkpt>
      <trkpt lat="43.253537" lon="-5.009473">
        <ele>1177.861</ele>
        <time>2022-01-27T12:39:55Z</time>
      </trkpt>
      <trkpt lat="43.253492" lon="-5.009386">
        <ele>1179.021</ele>
        <time>2022-01-27T12:40:35Z</time>
      </trkpt>
      <trkpt lat="43.253430" lon="-5.009288">
        <ele>1180.413</ele>
        <time>2022-01-27T12:41:15Z</time>
      </trkpt>
      <trkpt lat="43.253282" lon="-5.009030">
        <ele>1183.108</ele>
        <time>2022-01-27T12:41:55Z</time>
      </trkpt>
      <trkpt lat="43.253229" lon="-5.008875">
        <ele>1183.735</ele>
        <time>2022-01-27T12:42:35Z</time>
      </trkpt>
      <trkpt lat="43.253135" lon="-5.008662">
        <ele>1185.789</ele>
        <time>2022-01-27T12:43:15Z</time>
      </trkpt>
      <trkpt lat="43.253054" lon="-5.008553">
        <ele>1187.213</ele>
        <time>2022-01-27T12:43:55Z</time>
      </trkpt>
      <trkpt lat="43.252916" lon="-5.008452">
        <ele>1190.310</ele>
        <time>2022-01-27T12:44:35Z</time>
      </trkpt>
      <trkpt lat="43.252860" lon="-5.008356">
        <ele>1191.397</ele>
        <time>2022-01-27T12:45:15Z</time>
      </trkpt>
      <trkpt lat="43.252817" lon="-5.008255">
        <ele>1191.016</ele>
        <time>2022-01-27T12:45:55Z</time>
      </trkpt>
      <trkpt lat="43.252797" lon="-5.008180">
        <ele>1190.191</ele>
        <time>2022-01-27T12:46:35Z</time>
      </trkpt>
      <trkpt lat="43.252656" lon="-5.008113">
        <ele>1192.737</ele>
        <time>2022-01-27T12:47:15Z</time>
      </trkpt>
      <trkpt lat="43.252580" lon="-5.008097">
        <ele>1194.538</ele>
        <time>2022-01-27T12:47:55Z</time>
      </trkpt>
      <trkpt lat="43.252452" lon="-5.008098">
        <ele>1197.270</ele>
        <time>2022-01-27T12:48:35Z</time>
      </trkpt>
      <trkpt lat="43.252359" lon="-5.008076">
        <ele>1197.817</ele>
        <time>2022-01-27T12:49:15Z</time>
      </trkpt>
      <trkpt lat="43.252275" lon="-5.008122">
        <ele>1199.208</ele>
        <time>2022-01-27T12:49:55Z</time>
      </trkpt>
      <trkpt lat="43.252236" lon="-5.008187">
        <ele>1200.322</ele>
        <time>2022-01-27T12:50:35Z</time>
      </trkpt>
      <trkpt lat="43.252204" lon="-5.008272">
        <ele>1201.326</ele>
        <time>2022-01-27T12:51:15Z</time>
      </trkpt>
      <trkpt lat="43.252184" lon="-5.008347">
        <ele>1202.240</ele>
        <time>2022-01-27T12:51:55Z</time>
      </trkpt>
      <trkpt lat="43.252116" lon="-5.008397">
        <ele>1203.257</ele>
        <time>2022-01-27T12:52:35Z</time>
      </trkpt>
      <trkpt lat="43.252010" lon="-5.008410">
        <ele>1203.214</ele>
        <time>2022-01-27T12:53:15Z</time>
      </trkpt>
      <trkpt lat="43.251856" lon="-5.008411">
        <ele>1205.043</ele>
        <time>2022-01-27T12:53:55Z</time>
      </trkpt>
      <trkpt lat="43.251803" lon="-5.008389">
        <ele>1205.898</ele>
        <time>2022-01-27T12:54:35Z</time>
      </trkpt>
      <trkpt lat="43.251734" lon="-5.008371">
        <ele>1207.074</ele>
        <time>2022-01-27T12:55:15Z</time>
      </trkpt>
      <trkpt lat="43.251661" lon="-5.008314">
        <ele>1208.243</ele>
        <time>2022-01-27T12:55:55Z</time>
      </trkpt>
      <trkpt lat="43.251615" lon="-5.008278">
        <ele>1210.864</ele>
        <time>2022-01-27T12:56:35Z</time>
      </trkpt>
      <trkpt lat="43.251563" lon="-5.008021">
        <ele>1213.110</ele>
        <time>2022-01-27T12:57:15Z</time>
      </trkpt>
      <trkpt lat="43.251530" lon="-5.007796">
        <ele>1215.408</ele>
        <time>2022-01-27T12:57:55Z</time>
      </trkpt>
      <trkpt lat="43.251527" lon="-5.007662">
        <ele>1216.663</ele>
        <time>2022-01-27T12:58:35Z</time>
      </trkpt>
      <trkpt lat="43.251572" lon="-5.007428">
        <ele>1217.897</ele>
        <time>2022-01-27T12:59:15Z</time>
      </trkpt>
      <trkpt lat="43.251615" lon="-5.007253">
        <ele>1219.931</ele>
        <time>2022-01-27T12:59:55Z</time>
      </trkpt>
      <trkpt lat="43.251619" lon="-5.007143">
        <ele>1220.098</ele>
        <time>2022-01-27T13:00:35Z</time>
      </trkpt>
      <trkpt lat="43.251620" lon="-5.007056">
        <ele>1219.645</ele>
        <time>2022-01-27T13:01:15Z</time>
      </trkpt>
      <trkpt lat="43.251556" lon="-5.006905">
        <ele>1222.824</ele>
        <time>2022-01-27T13:01:55Z</time>
      </trkpt>
      <trkpt lat="43.251498" lon="-5.006819">
        <ele>1225.039</ele>
        <time>2022-01-27T13:02:35Z</time>
      </trkpt>
      <trkpt lat="43.251325" lon="-5.006532">
        <ele>1225.725</ele>
        <time>2022-01-27T13:03:15Z</time>
      </trkpt>
      <trkpt lat="43.251134" lon="-5.006375">
        <ele>1228.149</ele>
        <time>2022-01-27T13:03:55Z</time>
      </trkpt>
      <trkpt lat="43.251001" lon="-5.006279">
        <ele>1228.402</ele>
        <time>2022-01-27T13:04:35Z</time>
      </trkpt>
      <trkpt lat="43.250899" lon="-5.006222">
        <ele>1228.722</ele>
        <time>2022-01-27T13:05:15Z</time>
      </trkpt>
      <trkpt lat="43.250792" lon="-5.006191">
        <ele>1229.908</ele>
        <time>2022-01-27T13:05:55Z</time>
      </trkpt>
      <trkpt lat="43.250684" lon="-5.006170">
        <ele>1231.553</ele>
        <time>2022-01-27T13:06:35Z</time>
      </trkpt>
      <trkpt lat="43.250631" lon="-5.006117">
        <ele>1231.167</ele>
        <time>2022-01-27T13:07:15Z</time>
      </trkpt>
      <trkpt lat="43.250589" lon="-5.005975">
        <ele>1230.141</ele>
        <time>2022-01-27T13:07:55Z</time>
      </trkpt>
      <trkpt lat="43.250562" lon="-5.005898">
        <ele>1229.628</ele>
        <time>2022-01-27T13:08:35Z</time>
      </trkpt>
      <trkpt lat="43.250511" lon="-5.005812">
        <ele>1229.585</ele>
        <time>2022-01-27T13:09:15Z</time>
      </trkpt>
      <trkpt lat="43.250481" lon="-5.005742">
        <ele>1229.694</ele>
        <time>2022-01-27T13:09:55Z</time>
      </trkpt>
      <trkpt lat="43.250447" lon="-5.005481">
        <ele>1228.899</ele>
        <time>2022-01-27T13:10:35Z</time>
      </trkpt>
      <trkpt lat="43.250389" lon="-5.005178">
        <ele>1229.165</ele>
        <time>2022-01-27T13:11:15Z</time>
      </trkpt>
      <trkpt lat="43.250336" lon="-5.005000">
        <ele>1229.283</ele>
        <time>2022-01-27T13:11:55Z</time>
      </trkpt>
      <trkpt lat="43.250131" lon="-5.004681">
        <ele>1230.825</ele>
        <time>2022-01-27T13:12:35Z</time>
      </trkpt>
      <trkpt lat="43.249898" lon="-5.004298">
        <ele>1232.717</ele>
        <time>2022-01-27T13:13:15Z</time>
      </trkpt>
      <trkpt lat="43.249838" lon="-5.004047">
        <ele>1233.408</ele>
        <time>2022-01-27T13:13:55Z</time>
      </trkpt>
      <trkpt lat="43.249783" lon="-5.003776">
        <ele>1234.677</ele>
        <time>2022-01-27T13:14:35Z</time>
      </trkpt>
      <trkpt lat="43.249667" lon="-5.003459">
        <ele>1236.331</ele>
        <time>2022-01-27T13:15:15Z</time>
      </trkpt>
      <trkpt lat="43.249481" lon="-5.003103">
        <ele>1237.925</ele>
        <time>2022-01-27T13:15:55Z</time>
      </trkpt>
      <trkpt lat="43.249381" lon="-5.002964">
        <ele>1238.642</ele>
        <time>2022-01-27T13:16:35Z</time>
      </trkpt>
      <trkpt lat="43.249147" lon="-5.002578">
        <ele>1244.019</ele>
        <time>2022-01-27T13:17:15Z</time>
      </trkpt>
      <trkpt lat="43.249070" lon="-5.002453">
        <ele>1247.288</ele>
        <time>2022-01-27T13:17:55Z</time>
      </trkpt>
      <trkpt lat="43.248989" lon="-5.002431">
        <ele>1248.333</ele>
        <time>2022-01-27T13:18:35Z</time>
      </trkpt>
      <trkpt lat="43.248846" lon="-5.002450">
        <ele>1247.649</ele>
        <time>2022-01-27T13:19:15Z</time>
      </trkpt>
      <trkpt lat="43.248785" lon="-5.002424">
        <ele>1247.423</ele>
        <time>2022-01-27T13:19:55Z</time>
      </trkpt>
      <trkpt lat="43.248732" lon="-5.002262">
        <ele>1250.783</ele>
        <time>2022-01-27T13:20:35Z</time>
      </trkpt>
      <trkpt lat="43.248518" lon="-5.001976">
        <ele>1255.411</ele>
        <time>2022-01-27T13:21:15Z</time>
      </trkpt>
      <trkpt lat="43.248347" lon="-5.001753">
        <ele>1258.908</ele>
        <time>2022-01-27T13:21:55Z</time>
      </trkpt>
      <trkpt lat="43.248148" lon="-5.001671">
        <ele>1259.561</ele>
        <time>2022-01-27T13:22:35Z</time>
      </trkpt>
      <trkpt lat="43.248042" lon="-5.001628">
        <ele>1259.865</ele>
        <time>2022-01-27T13:23:15Z</time>
      </trkpt>
      <trkpt lat="43.247851" lon="-5.001374">
        <ele>1263.819</ele>
        <time>2022-01-27T13:23:55Z</time>
      </trkpt>
      <trkpt lat="43.247736" lon="-5.001227">
        <ele>1266.356</ele>
        <time>2022-01-27T13:24:35Z</time>
      </trkpt>
      <trkpt lat="43.247627" lon="-5.001058">
        <ele>1269.573</ele>
        <time>2022-01-27T13:25:15Z</time>
      </trkpt>
      <trkpt lat="43.247417" lon="-5.000824">
        <ele>1273.152</ele>
        <time>2022-01-27T13:25:55Z</time>
      </trkpt>
      <trkpt lat="43.247304" lon="-5.000703">
        <ele>1274.947</ele>
        <time>2022-01-27T13:26:35Z</time>
      </trkpt>
      <trkpt lat="43.247254" lon="-5.000642">
        <ele>1276.053</ele>
        <time>2022-01-27T13:27:15Z</time>
      </trkpt>
      <trkpt lat="43.247273" lon="-5.000591">
        <ele>1277.712</ele>
        <time>2022-01-27T13:27:55Z</time>
      </trkpt>
      <trkpt lat="43.247385" lon="-5.000576">
        <ele>1279.832</ele>
        <time>2022-01-27T13:28:35Z</time>
      </trkpt>
      <trkpt lat="43.247352" lon="-5.000501">
        <ele>1281.505</ele>
        <time>2022-01-27T13:29:15Z</time>
      </trkpt>
      <trkpt lat="43.247085" lon="-5.000235">
        <ele>1287.808</ele>
        <time>2022-01-27T13:29:55Z</time>
      </trkpt>
      <trkpt lat="43.246941" lon="-5.000039">
        <ele>1290.670</ele>
        <time>2022-01-27T13:30:35Z</time>
      </trkpt>
      <trkpt lat="43.246860" lon="-4.999905">
        <ele>1292.784</ele>
        <time>2022-01-27T13:31:15Z</time>
      </trkpt>
      <trkpt lat="43.246580" lon="-4.999777">
        <ele>1292.638</ele>
        <time>2022-01-27T13:31:55Z</time>
      </trkpt>
      <trkpt lat="43.246422" lon="-4.999724">
        <ele>1293.855</ele>
        <time>2022-01-27T13:32:35Z</time>
      </trkpt>
      <trkpt lat="43.246280" lon="-4.999583">
        <ele>1295.162</ele>
        <time>2022-01-27T13:33:15Z</time>
      </trkpt>
      <trkpt lat="43.246168" lon="-4.999443">
        <ele>1295.811</ele>
        <time>2022-01-27T13:33:55Z</time>
      </trkpt>
      <trkpt lat="43.246081" lon="-4.999404">
        <ele>1296.266</ele>
        <time>2022-01-27T13:34:35Z</time>
      </trkpt>
      <trkpt lat="43.245948" lon="-4.999418">
        <ele>1295.772</ele>
        <time>2022-01-27T13:35:15Z</time>
      </trkpt>
      <trkpt lat="43.245817" lon="-4.999375">
        <ele>1295.735</ele>
        <time>2022-01-27T13:35:55Z</time>
      </trkpt>
      <trkpt lat="43.245695" lon="-4.999270">
        <ele>1296.386</ele>
        <time>2022-01-27T13:36:35Z</time>
      </trkpt>
      <trkpt lat="43.245537" lon="-4.999115">
        <ele>1296.714</ele>
        <time>2022-01-27T13:37:15Z</time>
      </trkpt>
      <trkpt lat="43.245427" lon="-4.999053">
        <ele>1297.808</ele>
        <time>2022-01-27T13:37:55Z</time>
      </trkpt>
      <trkpt lat="43.245336" lon="-4.999072">
        <ele>1298.192</ele>
        <time>2022-01-27T13:38:35Z</time>
      </trkpt>
      <trkpt lat="43.245152" lon="-4.999031">
        <ele>1303.016</ele>
        <time>2022-01-27T13:39:15Z</time>
      </trkpt>
      <trkpt lat="43.244977" lon="-4.998920">
        <ele>1307.720</ele>
        <time>2022-01-27T13:39:55Z</time>
      </trkpt>
      <trkpt lat="43.244925" lon="-4.998724">
        <ele>1310.157</ele>
        <time>2022-01-27T13:40:35Z</time>
      </trkpt>
      <trkpt lat="43.244822" lon="-4.998510">
        <ele>1315.214</ele>
        <time>2022-01-27T13:41:15Z</time>
      </trkpt>
      <trkpt lat="43.244760" lon="-4.998322">
        <ele>1318.173</ele>
        <time>2022-01-27T13:41:55Z</time>
      </trkpt>
      <trkpt lat="43.244768" lon="-4.998187">
        <ele>1319.898</ele>
        <time>2022-01-27T13:42:35Z</time>
      </trkpt>
      <trkpt lat="43.244750" lon="-4.998018">
        <ele>1323.114</ele>
        <time>2022-01-27T13:43:15Z</time>
      </trkpt>
      <trkpt lat="43.244820" lon="-4.997723">
        <ele>1331.186</ele>
        <time>2022-01-27T13:43:55Z</time>
      </trkpt>
      <trkpt lat="43.244715" lon="-4.997652">
        <ele>1332.760</ele>
        <time>2022-01-27T13:44:35Z</time>
      </trkpt>
      <trkpt lat="43.244590" lon="-4.997482">
        <ele>1338.526</ele>
        <time>2022-01-27T13:45:15Z</time>
      </trkpt>
      <trkpt lat="43.244510" lon="-4.997226">
        <ele>1345.408</ele>
        <time>2022-01-27T13:45:55Z</time>
      </trkpt>
      <trkpt lat="43.244411" lon="-4.997014">
        <ele>1349.117</ele>
        <time>2022-01-27T13:46:35Z</time>
      </trkpt>
      <trkpt lat="43.244077" lon="-4.996572">
        <ele>1354.891</ele>
        <time>2022-01-27T13:47:15Z</time>
      </trkpt>
      <trkpt lat="43.243882" lon="-4.996281">
        <ele>1358.215</ele>
        <time>2022-01-27T13:47:55Z</time>
      </trkpt>
      <trkpt lat="43.243735" lon="-4.996196">
        <ele>1360.772</ele>
        <time>2022-01-27T13:48:35Z</time>
      </trkpt>
      <trkpt lat="43.243578" lon="-4.996167">
        <ele>1363.039</ele>
        <time>2022-01-27T13:49:15Z</time>
      </trkpt>
      <trkpt lat="43.243466" lon="-4.996234">
        <ele>1364.598</ele>
        <time>2022-01-27T13:49:55Z</time>
      </trkpt>
      <trkpt lat="43.243417" lon="-4.996220">
        <ele>1365.643</ele>
        <time>2022-01-27T13:50:35Z</time>
      </trkpt>
      <trkpt lat="43.243381" lon="-4.996101">
        <ele>1367.159</ele>
        <time>2022-01-27T13:51:15Z</time>
      </trkpt>
      <trkpt lat="43.243337" lon="-4.995983">
        <ele>1367.522</ele>
        <time>2022-01-27T13:51:55Z</time>
      </trkpt>
      <trkpt lat="43.243232" lon="-4.995908">
        <ele>1368.562</ele>
        <time>2022-01-27T13:52:35Z</time>
      </trkpt>
      <trkpt lat="43.243103" lon="-4.995868">
        <ele>1370.208</ele>
        <time>2022-01-27T13:53:15Z</time>
      </trkpt>
      <trkpt lat="43.242978" lon="-4.995800">
        <ele>1371.208</ele>
        <time>2022-01-27T13:53:55Z</time>
      </trkpt>
      <trkpt lat="43.242873" lon="-4.995787">
        <ele>1371.321</ele>
        <time>2022-01-27T13:54:35Z</time>
      </trkpt>
      <trkpt lat="43.242740" lon="-4.995667">
        <ele>1372.395</ele>
        <time>2022-01-27T13:55:15Z</time>
      </trkpt>
      <trkpt lat="43.242282" lon="-4.995251">
        <ele>1377.829</ele>
        <time>2022-01-27T13:55:55Z</time>
      </trkpt>
      <trkpt lat="43.241860" lon="-4.994824">
        <ele>1383.746</ele>
        <time>2022-01-27T13:56:35Z</time>
      </trkpt>
      <trkpt lat="43.241550" lon="-4.994580">
        <ele>1389.953</ele>
        <time>2022-01-27T13:57:15Z</time>
      </trkpt>
      <trkpt lat="43.241401" lon="-4.994360">
        <ele>1392.382</ele>
        <time>2022-01-27T13:57:55Z</time>
      </trkpt>
      <trkpt lat="43.241286" lon="-4.994300">
        <ele>1397.357</ele>
        <time>2022-01-27T13:58:35Z</time>
      </trkpt>
      <trkpt lat="43.241205" lon="-4.994231">
        <ele>1400.573</ele>
        <time>2022-01-27T13:59:15Z</time>
      </trkpt>
      <trkpt lat="43.241174" lon="-4.994086">
        <ele>1401.378</ele>
        <time>2022-01-27T13:59:55Z</time>
      </trkpt>
      <trkpt lat="43.240982" lon="-4.993919">
        <ele>1408.033</ele>
        <time>2022-01-27T14:00:35Z</time>
      </trkpt>
      <trkpt lat="43.240844" lon="-4.993871">
        <ele>1411.526</ele>
        <time>2022-01-27T14:01:15Z</time>
      </trkpt>
      <trkpt lat="43.240726" lon="-4.993838">
        <ele>1412.508</ele>
        <time>2022-01-27T14:01:55Z</time>
      </trkpt>
      <trkpt lat="43.240638" lon="-4.993864">
        <ele>1413.796</ele>
        <time>2022-01-27T14:02:35Z</time>
      </trkpt>
      <trkpt lat="43.240541" lon="-4.993823">
        <ele>1414.090</ele>
        <time>2022-01-27T14:03:15Z</time>
      </trkpt>
      <trkpt lat="43.240493" lon="-4.993835">
        <ele>1414.854</ele>
        <time>2022-01-27T14:03:55Z</time>
      </trkpt>
      <trkpt lat="43.240442" lon="-4.993888">
        <ele>1416.291</ele>
        <time>2022-01-27T14:04:35Z</time>
      </trkpt>
      <trkpt lat="43.240377" lon="-4.993887">
        <ele>1416.958</ele>
        <time>2022-01-27T14:05:15Z</time>
      </trkpt>
      <trkpt lat="43.240310" lon="-4.993891">
        <ele>1417.797</ele>
        <time>2022-01-27T14:05:55Z</time>
      </trkpt>
      <trkpt lat="43.240244" lon="-4.993952">
        <ele>1420.152</ele>
        <time>2022-01-27T14:06:35Z</time>
      </trkpt>
      <trkpt lat="43.240185" lon="-4.993940">
        <ele>1421.228</ele>
        <time>2022-01-27T14:07:15Z</time>
      </trkpt>
      <trkpt lat="43.240140" lon="-4.993859">
        <ele>1421.043</ele>
        <time>2022-01-27T14:07:55Z</time>
      </trkpt>
      <trkpt lat="43.240041" lon="-4.993816">
        <ele>1422.764</ele>
        <time>2022-01-27T14:08:35Z</time>
      </trkpt>
      <trkpt lat="43.239886" lon="-4.993836">
        <ele>1426.410</ele>
        <time>2022-01-27T14:09:15Z</time>
      </trkpt>
      <trkpt lat="43.239805" lon="-4.993846">
        <ele>1428.208</ele>
        <time>2022-01-27T14:09:55Z</time>
      </trkpt>
      <trkpt lat="43.239709" lon="-4.993822">
        <ele>1429.423</ele>
        <time>2022-01-27T14:10:35Z</time>
      </trkpt>
      <trkpt lat="43.239662" lon="-4.993822">
        <ele>1429.967</ele>
        <time>2022-01-27T14:11:15Z</time>
      </trkpt>
      <trkpt lat="43.239566" lon="-4.993835">
        <ele>1431.161</ele>
        <time>2022-01-27T14:11:55Z</time>
      </trkpt>
      <trkpt lat="43.239473" lon="-4.993866">
        <ele>1432.428</ele>
        <time>2022-01-27T14:12:35Z</time>
      </trkpt>
      <trkpt lat="43.239413" lon="-4.993918">
        <ele>1433.835</ele>
        <time>2022-01-27T14:13:15Z</time>
      </trkpt>
      <trkpt lat="43.239368" lon="-4.993931">
        <ele>1434.564</ele>
        <time>2022-01-27T14:13:55Z</time>
      </trkpt>
      <trkpt lat="43.239296" lon="-4.993913">
        <ele>1435.469</ele>
        <time>2022-01-27T14:14:35Z</time>
      </trkpt>
      <trkpt lat="43.239257" lon="-4.993945">
        <ele>1436.255</ele>
        <time>2022-01-27T14:15:15Z</time>
      </trkpt>
      <trkpt lat="43.239180" lon="-4.993996">
        <ele>1437.696</ele>
        <time>2022-01-27T14:15:55Z</time>
      </trkpt>
      <trkpt lat="43.239076" lon="-4.993877">
        <ele>1438.931</ele>
        <time>2022-01-27T14:16:35Z</time>
      </trkpt>
      <trkpt lat="43.238957" lon="-4.993862">
        <ele>1441.524</ele>
        <time>2022-01-27T14:17:15Z</time>
      </trkpt>
      <trkpt lat="43.238845" lon="-4.993777">
        <ele>1444.508</ele>
        <time>2022-01-27T14:17:55Z</time>
      </trkpt>
      <trkpt lat="43.238737" lon="-4.993773">
        <ele>1448.228</ele>
        <time>2022-01-27T14:18:35Z</time>
      </trkpt>
      <trkpt lat="43.238639" lon="-4.993669">
        <ele>1451.332</ele>
        <time>2022-01-27T14:19:15Z</time>
      </trkpt>
      <trkpt lat="43.238568" lon="-4.993594">
        <ele>1453.456</ele>
        <time>2022-01-27T14:19:55Z</time>
      </trkpt>
      <trkpt lat="43.238482" lon="-4.993586">
        <ele>1456.723</ele>
        <time>2022-01-27T14:20:35Z</time>
      </trkpt>
      <trkpt lat="43.238245" lon="-4.993462">
        <ele>1462.310</ele>
        <time>2022-01-27T14:21:15Z</time>
      </trkpt>
      <trkpt lat="43.238096" lon="-4.993499">
        <ele>1465.429</ele>
        <time>2022-01-27T14:21:55Z</time>
      </trkpt>
      <trkpt lat="43.237825" lon="-4.993510">
        <ele>1466.754</ele>
        <time>2022-01-27T14:22:35Z</time>
      </trkpt>
      <trkpt lat="43.237650" lon="-4.993449">
        <ele>1466.430</ele>
        <time>2022-01-27T14:23:15Z</time>
      </trkpt>
      <trkpt lat="43.237514" lon="-4.993380">
        <ele>1466.893</ele>
        <time>2022-01-27T14:23:55Z</time>
      </trkpt>
      <trkpt lat="43.237286" lon="-4.993181">
        <ele>1465.865</ele>
        <time>2022-01-27T14:24:35Z</time>
      </trkpt>
      <trkpt lat="43.237211" lon="-4.993056">
        <ele>1465.721</ele>
        <time>2022-01-27T14:25:15Z</time>
      </trkpt>
      <trkpt lat="43.237176" lon="-4.992996">
        <ele>1466.308</ele>
        <time>2022-01-27T14:25:55Z</time>
      </trkpt>
      <trkpt lat="43.237056" lon="-4.992959">
        <ele>1463.828</ele>
        <time>2022-01-27T14:26:35Z</time>
      </trkpt>
      <trkpt lat="43.236980" lon="-4.992877">
        <ele>1463.652</ele>
        <time>2022-01-27T14:27:15Z</time>
      </trkpt>
      <trkpt lat="43.236895" lon="-4.992675">
        <ele>1466.796</ele>
        <time>2022-01-27T14:27:55Z</time>
      </trkpt>
      <trkpt lat="43.236855" lon="-4.992631">
        <ele>1467.143</ele>
        <time>2022-01-27T14:28:35Z</time>
      </trkpt>
      <trkpt lat="43.236719" lon="-4.992594">
        <ele>1465.340</ele>
        <time>2022-01-27T14:29:15Z</time>
      </trkpt>
      <trkpt lat="43.236564" lon="-4.992587">
        <ele>1462.159</ele>
        <time>2022-01-27T14:29:55Z</time>
      </trkpt>
      <trkpt lat="43.236397" lon="-4.992578">
        <ele>1458.524</ele>
        <time>2022-01-27T14:30:35Z</time>
      </trkpt>
      <trkpt lat="43.236250" lon="-4.992574">
        <ele>1455.850</ele>
        <time>2022-01-27T14:31:15Z</time>
      </trkpt>
      <trkpt lat="43.236159" lon="-4.992550">
        <ele>1454.669</ele>
        <time>2022-01-27T14:31:55Z</time>
      </trkpt>
      <trkpt lat="43.235946" lon="-4.992455">
        <ele>1456.904</ele>
        <time>2022-01-27T14:32:35Z</time>
      </trkpt>
      <trkpt lat="43.235620" lon="-4.992267">
        <ele>1460.624</ele>
        <time>2022-01-27T14:33:15Z</time>
      </trkpt>
      <trkpt lat="43.235432" lon="-4.992161">
        <ele>1461.808</ele>
        <time>2022-01-27T14:33:55Z</time>
      </trkpt>
      <trkpt lat="43.235325" lon="-4.992197">
        <ele>1459.965</ele>
        <time>2022-01-27T14:34:35Z</time>
      </trkpt>
      <trkpt lat="43.235239" lon="-4.992219">
        <ele>1458.989</ele>
        <time>2022-01-27T14:35:15Z</time>
      </trkpt>
      <trkpt lat="43.235111" lon="-4.992190">
        <ele>1459.333</ele>
        <time>2022-01-27T14:35:55Z</time>
      </trkpt>
      <trkpt lat="43.235061" lon="-4.992260">
        <ele>1457.660</ele>
        <time>2022-01-27T14:36:35Z</time>
      </trkpt>
      <trkpt lat="43.234912" lon="-4.992252">
        <ele>1459.377</ele>
        <time>2022-01-27T14:37:15Z</time>
      </trkpt>
      <trkpt lat="43.234767" lon="-4.992216">
        <ele>1463.296</ele>
        <time>2022-01-27T14:37:55Z</time>
      </trkpt>
      <trkpt lat="43.234568" lon="-4.992184">
        <ele>1466.621</ele>
        <time>2022-01-27T14:38:35Z</time>
      </trkpt>
      <trkpt lat="43.234417" lon="-4.992174">
        <ele>1468.777</ele>
        <time>2022-01-27T14:39:15Z</time>
      </trkpt>
      <trkpt lat="43.234177" lon="-4.992067">
        <ele>1474.122</ele>
        <time>2022-01-27T14:39:55Z</time>
      </trkpt>
      <trkpt lat="43.234050" lon="-4.992080">
        <ele>1474.362</ele>
        <time>2022-01-27T14:40:35Z</time>
      </trkpt>
      <trkpt lat="43.233904" lon="-4.992066">
        <ele>1474.708</ele>
        <time>2022-01-27T14:41:15Z</time>
      </trkpt>
      <trkpt lat="43.233834" lon="-4.992064">
        <ele>1475.708</ele>
        <time>2022-01-27T14:41:55Z</time>
      </trkpt>
      <trkpt lat="43.233759" lon="-4.992139">
        <ele>1476.251</ele>
        <time>2022-01-27T14:42:35Z</time>
      </trkpt>
      <trkpt lat="43.233749" lon="-4.992228">
        <ele>1475.545</ele>
        <time>2022-01-27T14:43:15Z</time>
      </trkpt>
      <trkpt lat="43.233743" lon="-4.992375">
        <ele>1474.029</ele>
        <time>2022-01-27T14:43:55Z</time>
      </trkpt>
      <trkpt lat="43.233776" lon="-4.992499">
        <ele>1471.756</ele>
        <time>2022-01-27T14:44:35Z</time>
      </trkpt>
      <trkpt lat="43.234012" lon="-4.992568">
        <ele>1466.633</ele>
        <time>2022-01-27T14:45:15Z</time>
      </trkpt>
      <trkpt lat="43.234285" lon="-4.992638">
        <ele>1463.392</ele>
        <time>2022-01-27T14:45:55Z</time>
      </trkpt>
      <trkpt lat="43.234377" lon="-4.992682">
        <ele>1461.417</ele>
        <time>2022-01-27T14:46:35Z</time>
      </trkpt>
      <trkpt lat="43.234448" lon="-4.992772">
        <ele>1459.173</ele>
        <time>2022-01-27T14:47:15Z</time>
      </trkpt>
      <trkpt lat="43.234416" lon="-4.992876">
        <ele>1459.573</ele>
        <time>2022-01-27T14:47:55Z</time>
      </trkpt>
      <trkpt lat="43.234400" lon="-4.992687">
        <ele>1461.085</ele>
        <time>2022-01-27T14:48:35Z</time>
      </trkpt>
      <trkpt lat="43.234319" lon="-4.992620">
        <ele>1463.013</ele>
        <time>2022-01-27T14:49:15Z</time>
      </trkpt>
      <trkpt lat="43.234119" lon="-4.992570">
        <ele>1465.808</ele>
        <time>2022-01-27T14:49:55Z</time>
      </trkpt>
      <trkpt lat="43.233935" lon="-4.992582">
        <ele>1467.176</ele>
        <time>2022-01-27T14:50:35Z</time>
      </trkpt>
      <trkpt lat="43.233813" lon="-4.992562">
        <ele>1470.080</ele>
        <time>2022-01-27T14:51:15Z</time>
      </trkpt>
      <trkpt lat="43.233724" lon="-4.992416">
        <ele>1474.124</ele>
        <time>2022-01-27T14:51:55Z</time>
      </trkpt>
      <trkpt lat="43.233738" lon="-4.992277">
        <ele>1475.281</ele>
        <time>2022-01-27T14:52:35Z</time>
      </trkpt>
      <trkpt lat="43.233735" lon="-4.992198">
        <ele>1476.088</ele>
        <time>2022-01-27T14:53:15Z</time>
      </trkpt>
      <trkpt lat="43.233773" lon="-4.992089">
        <ele>1476.577</ele>
        <time>2022-01-27T14:53:55Z</time>
      </trkpt>
      <trkpt lat="43.233868" lon="-4.992061">
        <ele>1475.112</ele>
        <time>2022-01-27T14:54:35Z</time>
      </trkpt>
      <trkpt lat="43.233979" lon="-4.992084">
        <ele>1474.338</ele>
        <time>2022-01-27T14:55:15Z</time>
      </trkpt>
      <trkpt lat="43.234113" lon="-4.992078">
        <ele>1474.247</ele>
        <time>2022-01-27T14:55:55Z</time>
      </trkpt>
      <trkpt lat="43.234241" lon="-4.992087">
        <ele>1473.029</ele>
        <time>2022-01-27T14:56:35Z</time>
      </trkpt>
      <trkpt lat="43.234461" lon="-4.992184">
        <ele>1467.821</ele>
        <time>2022-01-27T14:57:15Z</time>
      </trkpt>
      <trkpt lat="43.234631" lon="-4.992180">
        <ele>1465.908</ele>
        <time>2022-01-27T14:57:55Z</time>
      </trkpt>
      <trkpt lat="43.234840" lon="-4.992239">
        <ele>1461.113</ele>
        <time>2022-01-27T14:58:35Z</time>
      </trkpt>
      <trkpt lat="43.234986" lon="-4.992260">
        <ele>1457.687</ele>
        <time>2022-01-27T14:59:15Z</time>
      </trkpt>
      <trkpt lat="43.235091" lon="-4.992211">
        <ele>1458.791</ele>
        <time>2022-01-27T14:59:55Z</time>
      </trkpt>
      <trkpt lat="43.235157" lon="-4.992203">
        <ele>1459.158</ele>
        <time>2022-01-27T15:00:35Z</time>
      </trkpt>
      <trkpt lat="43.235258" lon="-4.992197">
        <ele>1459.595</ele>
        <time>2022-01-27T15:01:15Z</time>
      </trkpt>
      <trkpt lat="43.235373" lon="-4.992156">
        <ele>1461.424</ele>
        <time>2022-01-27T15:01:55Z</time>
      </trkpt>
      <trkpt lat="43.235475" lon="-4.992177">
        <ele>1461.779</ele>
        <time>2022-01-27T15:02:35Z</time>
      </trkpt>
      <trkpt lat="43.235830" lon="-4.992387">
        <ele>1458.835</ele>
        <time>2022-01-27T15:03:15Z</time>
      </trkpt>
      <trkpt lat="43.236081" lon="-4.992539">
        <ele>1454.161</ele>
        <time>2022-01-27T15:03:55Z</time>
      </trkpt>
      <trkpt lat="43.236202" lon="-4.992558">
        <ele>1455.221</ele>
        <time>2022-01-27T15:04:35Z</time>
      </trkpt>
      <trkpt lat="43.236304" lon="-4.992554">
        <ele>1457.213</ele>
        <time>2022-01-27T15:05:15Z</time>
      </trkpt>
      <trkpt lat="43.236476" lon="-4.992585">
        <ele>1460.108</ele>
        <time>2022-01-27T15:05:55Z</time>
      </trkpt>
      <trkpt lat="43.236628" lon="-4.992568">
        <ele>1463.925</ele>
        <time>2022-01-27T15:06:35Z</time>
      </trkpt>
      <trkpt lat="43.236823" lon="-4.992610">
        <ele>1467.069</ele>
        <time>2022-01-27T15:07:15Z</time>
      </trkpt>
      <trkpt lat="43.236922" lon="-4.992728">
        <ele>1465.933</ele>
        <time>2022-01-27T15:07:55Z</time>
      </trkpt>
      <trkpt lat="43.237016" lon="-4.992903">
        <ele>1464.040</ele>
        <time>2022-01-27T15:08:35Z</time>
      </trkpt>
      <trkpt lat="43.237118" lon="-4.992994">
        <ele>1464.747</ele>
        <time>2022-01-27T15:09:15Z</time>
      </trkpt>
      <trkpt lat="43.237200" lon="-4.993018">
        <ele>1466.456</ele>
        <time>2022-01-27T15:09:55Z</time>
      </trkpt>
      <trkpt lat="43.237240" lon="-4.993088">
        <ele>1466.071</ele>
        <time>2022-01-27T15:10:35Z</time>
      </trkpt>
      <trkpt lat="43.237395" lon="-4.993279">
        <ele>1466.757</ele>
        <time>2022-01-27T15:11:15Z</time>
      </trkpt>
      <trkpt lat="43.237551" lon="-4.993393">
        <ele>1466.885</ele>
        <time>2022-01-27T15:11:55Z</time>
      </trkpt>
      <trkpt lat="43.237700" lon="-4.993469">
        <ele>1466.689</ele>
        <time>2022-01-27T15:12:35Z</time>
      </trkpt>
      <trkpt lat="43.237882" lon="-4.993520">
        <ele>1466.417</ele>
        <time>2022-01-27T15:13:15Z</time>
      </trkpt>
      <trkpt lat="43.238141" lon="-4.993490">
        <ele>1464.608</ele>
        <time>2022-01-27T15:13:55Z</time>
      </trkpt>
      <trkpt lat="43.238265" lon="-4.993483">
        <ele>1462.137</ele>
        <time>2022-01-27T15:14:35Z</time>
      </trkpt>
      <trkpt lat="43.238308" lon="-4.993507">
        <ele>1461.661</ele>
        <time>2022-01-27T15:15:15Z</time>
      </trkpt>
      <trkpt lat="43.238515" lon="-4.993590">
        <ele>1455.475</ele>
        <time>2022-01-27T15:15:55Z</time>
      </trkpt>
      <trkpt lat="43.238589" lon="-4.993616">
        <ele>1452.952</ele>
        <time>2022-01-27T15:16:35Z</time>
      </trkpt>
      <trkpt lat="43.238683" lon="-4.993733">
        <ele>1450.039</ele>
        <time>2022-01-27T15:17:15Z</time>
      </trkpt>
      <trkpt lat="43.238786" lon="-4.993775">
        <ele>1446.698</ele>
        <time>2022-01-27T15:17:55Z</time>
      </trkpt>
      <trkpt lat="43.238888" lon="-4.993802">
        <ele>1443.033</ele>
        <time>2022-01-27T15:18:35Z</time>
      </trkpt>
      <trkpt lat="43.239008" lon="-4.993886">
        <ele>1440.449</ele>
        <time>2022-01-27T15:19:15Z</time>
      </trkpt>
      <trkpt lat="43.239121" lon="-4.993915">
        <ele>1438.195</ele>
        <time>2022-01-27T15:19:55Z</time>
      </trkpt>
      <trkpt lat="43.239205" lon="-4.993991">
        <ele>1437.249</ele>
        <time>2022-01-27T15:20:35Z</time>
      </trkpt>
      <trkpt lat="43.239315" lon="-4.993923">
        <ele>1435.223</ele>
        <time>2022-01-27T15:21:15Z</time>
      </trkpt>
      <trkpt lat="43.239396" lon="-4.993916">
        <ele>1434.008</ele>
        <time>2022-01-27T15:21:55Z</time>
      </trkpt>
      <trkpt lat="43.239506" lon="-4.993846">
        <ele>1431.838</ele>
        <time>2022-01-27T15:22:35Z</time>
      </trkpt>
      <trkpt lat="43.239598" lon="-4.993817">
        <ele>1430.492</ele>
        <time>2022-01-27T15:23:15Z</time>
      </trkpt>
      <trkpt lat="43.239743" lon="-4.993826">
        <ele>1429.096</ele>
        <time>2022-01-27T15:23:55Z</time>
      </trkpt>
      <trkpt lat="43.239855" lon="-4.993854">
        <ele>1427.493</ele>
        <time>2022-01-27T15:24:35Z</time>
      </trkpt>
      <trkpt lat="43.239936" lon="-4.993809">
        <ele>1424.840</ele>
        <time>2022-01-27T15:25:15Z</time>
      </trkpt>
      <trkpt lat="43.240084" lon="-4.993818">
        <ele>1421.869</ele>
        <time>2022-01-27T15:25:55Z</time>
      </trkpt>
      <trkpt lat="43.240173" lon="-4.993917">
        <ele>1421.174</ele>
        <time>2022-01-27T15:26:35Z</time>
      </trkpt>
      <trkpt lat="43.240219" lon="-4.993957">
        <ele>1420.740</ele>
        <time>2022-01-27T15:27:15Z</time>
      </trkpt>
      <trkpt lat="43.240278" lon="-4.993908">
        <ele>1418.423</ele>
        <time>2022-01-27T15:27:55Z</time>
      </trkpt>
      <trkpt lat="43.240338" lon="-4.993882">
        <ele>1417.383</ele>
        <time>2022-01-27T15:28:35Z</time>
      </trkpt>
      <trkpt lat="43.240474" lon="-4.993847">
        <ele>1415.211</ele>
        <time>2022-01-27T15:29:15Z</time>
      </trkpt>
      <trkpt lat="43.240584" lon="-4.993844">
        <ele>1413.908</ele>
        <time>2022-01-27T15:29:55Z</time>
      </trkpt>
      <trkpt lat="43.240681" lon="-4.993860">
        <ele>1413.261</ele>
        <time>2022-01-27T15:30:35Z</time>
      </trkpt>
      <trkpt lat="43.240773" lon="-4.993849">
        <ele>1412.295</ele>
        <time>2022-01-27T15:31:15Z</time>
      </trkpt>
      <trkpt lat="43.240890" lon="-4.993879">
        <ele>1410.399</ele>
        <time>2022-01-27T15:31:55Z</time>
      </trkpt>
      <trkpt lat="43.241021" lon="-4.993955">
        <ele>1407.086</ele>
        <time>2022-01-27T15:32:35Z</time>
      </trkpt>
      <trkpt lat="43.241082" lon="-4.994006">
        <ele>1405.153</ele>
        <time>2022-01-27T15:33:15Z</time>
      </trkpt>
      <trkpt lat="43.241182" lon="-4.994140">
        <ele>1401.082</ele>
        <time>2022-01-27T15:33:55Z</time>
      </trkpt>
      <trkpt lat="43.241238" lon="-4.994274">
        <ele>1399.347</ele>
        <time>2022-01-27T15:34:35Z</time>
      </trkpt>
      <trkpt lat="43.241344" lon="-4.994318">
        <ele>1394.733</ele>
        <time>2022-01-27T15:35:15Z</time>
      </trkpt>
      <trkpt lat="43.241441" lon="-4.994415">
        <ele>1391.236</ele>
        <time>2022-01-27T15:35:55Z</time>
      </trkpt>
      <trkpt lat="43.241589" lon="-4.994632">
        <ele>1389.117</ele>
        <time>2022-01-27T15:36:35Z</time>
      </trkpt>
      <trkpt lat="43.241789" lon="-4.994773">
        <ele>1384.818</ele>
        <time>2022-01-27T15:37:15Z</time>
      </trkpt>
      <trkpt lat="43.241914" lon="-4.994870">
        <ele>1383.008</ele>
        <time>2022-01-27T15:37:55Z</time>
      </trkpt>
      <trkpt lat="43.242201" lon="-4.995182">
        <ele>1379.012</ele>
        <time>2022-01-27T15:38:35Z</time>
      </trkpt>
      <trkpt lat="43.242516" lon="-4.995471">
        <ele>1373.326</ele>
        <time>2022-01-27T15:39:15Z</time>
      </trkpt>
      <trkpt lat="43.242795" lon="-4.995716">
        <ele>1371.850</ele>
        <time>2022-01-27T15:39:55Z</time>
      </trkpt>
      <trkpt lat="43.243021" lon="-4.995819">
        <ele>1371.127</ele>
        <time>2022-01-27T15:40:35Z</time>
      </trkpt>
      <trkpt lat="43.243170" lon="-4.995896">
        <ele>1369.394</ele>
        <time>2022-01-27T15:41:15Z</time>
      </trkpt>
      <trkpt lat="43.243263" lon="-4.995948">
        <ele>1368.213</ele>
        <time>2022-01-27T15:41:55Z</time>
      </trkpt>
      <trkpt lat="43.243364" lon="-4.996031">
        <ele>1367.328</ele>
        <time>2022-01-27T15:42:35Z</time>
      </trkpt>
      <trkpt lat="43.243398" lon="-4.996140">
        <ele>1366.674</ele>
        <time>2022-01-27T15:43:15Z</time>
      </trkpt>
      <trkpt lat="43.243441" lon="-4.996223">
        <ele>1365.114</ele>
        <time>2022-01-27T15:43:55Z</time>
      </trkpt>
      <trkpt lat="43.243503" lon="-4.996215">
        <ele>1364.054</ele>
        <time>2022-01-27T15:44:35Z</time>
      </trkpt>
      <trkpt lat="43.243622" lon="-4.996175">
        <ele>1362.209</ele>
        <time>2022-01-27T15:45:15Z</time>
      </trkpt>
      <trkpt lat="43.243794" lon="-4.996210">
        <ele>1360.008</ele>
        <time>2022-01-27T15:45:55Z</time>
      </trkpt>
      <trkpt lat="43.243928" lon="-4.996352">
        <ele>1357.380</ele>
        <time>2022-01-27T15:46:35Z</time>
      </trkpt>
      <trkpt lat="43.244122" lon="-4.996677">
        <ele>1353.534</ele>
        <time>2022-01-27T15:47:15Z</time>
      </trkpt>
      <trkpt lat="43.244316" lon="-4.996940">
        <ele>1351.558</ele>
        <time>2022-01-27T15:47:55Z</time>
      </trkpt>
      <trkpt lat="43.244450" lon="-4.997108">
        <ele>1347.275</ele>
        <time>2022-01-27T15:48:35Z</time>
      </trkpt>
      <trkpt lat="43.244554" lon="-4.997231">
        <ele>1345.512</ele>
        <time>2022-01-27T15:49:15Z</time>
      </trkpt>
      <trkpt lat="43.244613" lon="-4.997380">
        <ele>1341.411</ele>
        <time>2022-01-27T15:49:55Z</time>
      </trkpt>
      <trkpt lat="43.244654" lon="-4.997550">
        <ele>1336.276</ele>
        <time>2022-01-27T15:50:35Z</time>
      </trkpt>
      <trkpt lat="43.244762" lon="-4.997735">
        <ele>1330.412</ele>
        <time>2022-01-27T15:51:15Z</time>
      </trkpt>
      <trkpt lat="43.244870" lon="-4.997763">
        <ele>1329.614</ele>
        <time>2022-01-27T15:51:55Z</time>
      </trkpt>
      <trkpt lat="43.244817" lon="-4.997935">
        <ele>1324.154</ele>
        <time>2022-01-27T15:52:35Z</time>
      </trkpt>
      <trkpt lat="43.244728" lon="-4.998100">
        <ele>1322.209</ele>
        <time>2022-01-27T15:53:15Z</time>
      </trkpt>
      <trkpt lat="43.244773" lon="-4.998261">
        <ele>1318.608</ele>
        <time>2022-01-27T15:53:55Z</time>
      </trkpt>
      <trkpt lat="43.244778" lon="-4.998406">
        <ele>1317.240</ele>
        <time>2022-01-27T15:54:35Z</time>
      </trkpt>
      <trkpt lat="43.244852" lon="-4.998590">
        <ele>1313.594</ele>
        <time>2022-01-27T15:55:15Z</time>
      </trkpt>
      <trkpt lat="43.244936" lon="-4.998831">
        <ele>1309.338</ele>
        <time>2022-01-27T15:55:55Z</time>
      </trkpt>
      <trkpt lat="43.245065" lon="-4.998985">
        <ele>1305.625</ele>
        <time>2022-01-27T15:56:35Z</time>
      </trkpt>
      <trkpt lat="43.245210" lon="-4.999082">
        <ele>1301.062</ele>
        <time>2022-01-27T15:57:15Z</time>
      </trkpt>
      <trkpt lat="43.245370" lon="-4.999069">
        <ele>1297.931</ele>
        <time>2022-01-27T15:57:55Z</time>
      </trkpt>
      <trkpt lat="43.245475" lon="-4.999067">
        <ele>1297.466</ele>
        <time>2022-01-27T15:58:35Z</time>
      </trkpt>
      <trkpt lat="43.245637" lon="-4.999197">
        <ele>1296.432</ele>
        <time>2022-01-27T15:59:15Z</time>
      </trkpt>
      <trkpt lat="43.245768" lon="-4.999307">
        <ele>1296.343</ele>
        <time>2022-01-27T15:59:55Z</time>
      </trkpt>
      <trkpt lat="43.245877" lon="-4.999381">
        <ele>1295.864</ele>
        <time>2022-01-27T16:00:35Z</time>
      </trkpt>
      <trkpt lat="43.246005" lon="-4.999412">
        <ele>1295.910</ele>
        <time>2022-01-27T16:01:15Z</time>
      </trkpt>
      <trkpt lat="43.246119" lon="-4.999427">
        <ele>1296.108</ele>
        <time>2022-01-27T16:01:55Z</time>
      </trkpt>
      <trkpt lat="43.246206" lon="-4.999517">
        <ele>1295.643</ele>
        <time>2022-01-27T16:02:35Z</time>
      </trkpt>
      <trkpt lat="43.246356" lon="-4.999661">
        <ele>1294.497</ele>
        <time>2022-01-27T16:03:15Z</time>
      </trkpt>
      <trkpt lat="43.246502" lon="-4.999756">
        <ele>1293.131</ele>
        <time>2022-01-27T16:03:55Z</time>
      </trkpt>
      <trkpt lat="43.246674" lon="-4.999846">
        <ele>1292.558</ele>
        <time>2022-01-27T16:04:35Z</time>
      </trkpt>
      <trkpt lat="43.246892" lon="-4.999971">
        <ele>1291.835</ele>
        <time>2022-01-27T16:05:15Z</time>
      </trkpt>
      <trkpt lat="43.247011" lon="-5.000147">
        <ele>1289.564</ele>
        <time>2022-01-27T16:05:55Z</time>
      </trkpt>
      <trkpt lat="43.247196" lon="-5.000345">
        <ele>1284.219</ele>
        <time>2022-01-27T16:06:35Z</time>
      </trkpt>
      <trkpt lat="43.247374" lon="-5.000520">
        <ele>1281.315</ele>
        <time>2022-01-27T16:07:15Z</time>
      </trkpt>
      <trkpt lat="43.247354" lon="-5.000598">
        <ele>1278.723</ele>
        <time>2022-01-27T16:07:55Z</time>
      </trkpt>
      <trkpt lat="43.247250" lon="-5.000604">
        <ele>1277.083</ele>
        <time>2022-01-27T16:08:35Z</time>
      </trkpt>
      <trkpt lat="43.247354" lon="-5.000730">
        <ele>1274.911</ele>
        <time>2022-01-27T16:09:15Z</time>
      </trkpt>
      <trkpt lat="43.247495" lon="-5.000926">
        <ele>1271.008</ele>
        <time>2022-01-27T16:09:55Z</time>
      </trkpt>
      <trkpt lat="43.247688" lon="-5.001162">
        <ele>1267.451</ele>
        <time>2022-01-27T16:10:35Z</time>
      </trkpt>
      <trkpt lat="43.247795" lon="-5.001318">
        <ele>1264.665</ele>
        <time>2022-01-27T16:11:15Z</time>
      </trkpt>
      <trkpt lat="43.247912" lon="-5.001487">
        <ele>1261.479</ele>
        <time>2022-01-27T16:11:55Z</time>
      </trkpt>
      <trkpt lat="43.248081" lon="-5.001653">
        <ele>1259.616</ele>
        <time>2022-01-27T16:12:35Z</time>
      </trkpt>
      <trkpt lat="43.248259" lon="-5.001725">
        <ele>1258.733</ele>
        <time>2022-01-27T16:13:15Z</time>
      </trkpt>
      <trkpt lat="43.248380" lon="-5.001871">
        <ele>1256.172</ele>
        <time>2022-01-27T16:13:55Z</time>
      </trkpt>
      <trkpt lat="43.248594" lon="-5.002071">
        <ele>1254.087</ele>
        <time>2022-01-27T16:14:35Z</time>
      </trkpt>
      <trkpt lat="43.248749" lon="-5.002337">
        <ele>1249.163</ele>
        <time>2022-01-27T16:15:15Z</time>
      </trkpt>
      <trkpt lat="43.248813" lon="-5.002457">
        <ele>1247.027</ele>
        <time>2022-01-27T16:15:55Z</time>
      </trkpt>
      <trkpt lat="43.248935" lon="-5.002457">
        <ele>1247.868</ele>
        <time>2022-01-27T16:16:35Z</time>
      </trkpt>
      <trkpt lat="43.249035" lon="-5.002419">
        <ele>1248.414</ele>
        <time>2022-01-27T16:17:15Z</time>
      </trkpt>
      <trkpt lat="43.249123" lon="-5.002519">
        <ele>1245.008</ele>
        <time>2022-01-27T16:17:55Z</time>
      </trkpt>
      <trkpt lat="43.249274" lon="-5.002743">
        <ele>1242.191</ele>
        <time>2022-01-27T16:18:35Z</time>
      </trkpt>
      <trkpt lat="43.249433" lon="-5.003029">
        <ele>1237.525</ele>
        <time>2022-01-27T16:19:15Z</time>
      </trkpt>
      <trkpt lat="43.249566" lon="-5.003242">
        <ele>1238.429</ele>
        <time>2022-01-27T16:19:55Z</time>
      </trkpt>
      <trkpt lat="43.249703" lon="-5.003563">
        <ele>1234.886</ele>
        <time>2022-01-27T16:20:35Z</time>
      </trkpt>
      <trkpt lat="43.249821" lon="-5.003963">
        <ele>1233.733</ele>
        <time>2022-01-27T16:21:15Z</time>
      </trkpt>
      <trkpt lat="43.249853" lon="-5.004177">
        <ele>1232.952</ele>
        <time>2022-01-27T16:21:55Z</time>
      </trkpt>
      <trkpt lat="43.249959" lon="-5.004392">
        <ele>1232.317</ele>
        <time>2022-01-27T16:22:35Z</time>
      </trkpt>
      <trkpt lat="43.250185" lon="-5.004741">
        <ele>1230.683</ele>
        <time>2022-01-27T16:23:15Z</time>
      </trkpt>
      <trkpt lat="43.250362" lon="-5.005057">
        <ele>1229.258</ele>
        <time>2022-01-27T16:23:55Z</time>
      </trkpt>
      <trkpt lat="43.250403" lon="-5.005242">
        <ele>1229.152</ele>
        <time>2022-01-27T16:24:35Z</time>
      </trkpt>
      <trkpt lat="43.250461" lon="-5.005567">
        <ele>1228.817</ele>
        <time>2022-01-27T16:25:15Z</time>
      </trkpt>
      <trkpt lat="43.250529" lon="-5.005859">
        <ele>1229.708</ele>
        <time>2022-01-27T16:25:55Z</time>
      </trkpt>
      <trkpt lat="43.250646" lon="-5.006152">
        <ele>1231.784</ele>
        <time>2022-01-27T16:26:35Z</time>
      </trkpt>
      <trkpt lat="43.250828" lon="-5.006191">
        <ele>1229.258</ele>
        <time>2022-01-27T16:27:15Z</time>
      </trkpt>
      <trkpt lat="43.251048" lon="-5.006303">
        <ele>1228.212</ele>
        <time>2022-01-27T16:27:55Z</time>
      </trkpt>
      <trkpt lat="43.251231" lon="-5.006416">
        <ele>1226.039</ele>
        <time>2022-01-27T16:28:35Z</time>
      </trkpt>
      <trkpt lat="43.251384" lon="-5.006608">
        <ele>1225.876</ele>
        <time>2022-01-27T16:29:15Z</time>
      </trkpt>
      <trkpt lat="43.251532" lon="-5.006847">
        <ele>1223.585</ele>
        <time>2022-01-27T16:29:55Z</time>
      </trkpt>
      <trkpt lat="43.251610" lon="-5.006986">
        <ele>1219.880</ele>
        <time>2022-01-27T16:30:35Z</time>
      </trkpt>
      <trkpt lat="43.251643" lon="-5.007218">
        <ele>1219.296</ele>
        <time>2022-01-27T16:31:15Z</time>
      </trkpt>
      <trkpt lat="43.251599" lon="-5.007303">
        <ele>1219.558</ele>
        <time>2022-01-27T16:31:55Z</time>
      </trkpt>
      <trkpt lat="43.251537" lon="-5.007530">
        <ele>1217.352</ele>
        <time>2022-01-27T16:32:35Z</time>
      </trkpt>
      <trkpt lat="43.251525" lon="-5.007724">
        <ele>1216.117</ele>
        <time>2022-01-27T16:33:15Z</time>
      </trkpt>
      <trkpt lat="43.251586" lon="-5.008188">
        <ele>1212.208</ele>
        <time>2022-01-27T16:33:55Z</time>
      </trkpt>
      <trkpt lat="43.251689" lon="-5.008380">
        <ele>1208.344</ele>
        <time>2022-01-27T16:34:35Z</time>
      </trkpt>
      <trkpt lat="43.251928" lon="-5.008405">
        <ele>1203.278</ele>
        <time>2022-01-27T16:35:15Z</time>
      </trkpt>
      <trkpt lat="43.252158" lon="-5.008409">
        <ele>1203.782</ele>
        <time>2022-01-27T16:35:55Z</time>
      </trkpt>
      <trkpt lat="43.252230" lon="-5.008135">
        <ele>1199.899</ele>
        <time>2022-01-27T16:36:35Z</time>
      </trkpt>
      <trkpt lat="43.252393" lon="-5.008088">
        <ele>1197.716</ele>
        <time>2022-01-27T16:37:15Z</time>
      </trkpt>
      <trkpt lat="43.252509" lon="-5.008092">
        <ele>1196.455</ele>
        <time>2022-01-27T16:37:55Z</time>
      </trkpt>
      <trkpt lat="43.252727" lon="-5.008105">
        <ele>1190.530</ele>
        <time>2022-01-27T16:38:35Z</time>
      </trkpt>
      <trkpt lat="43.252806" lon="-5.008145">
        <ele>1189.196</ele>
        <time>2022-01-27T16:39:15Z</time>
      </trkpt>
      <trkpt lat="43.252875" lon="-5.008430">
        <ele>1191.424</ele>
        <time>2022-01-27T16:39:55Z</time>
      </trkpt>
      <trkpt lat="43.252986" lon="-5.008492">
        <ele>1188.504</ele>
        <time>2022-01-27T16:40:35Z</time>
      </trkpt>
      <trkpt lat="43.253097" lon="-5.008599">
        <ele>1186.514</ele>
        <time>2022-01-27T16:41:15Z</time>
      </trkpt>
      <trkpt lat="43.253241" lon="-5.008925">
        <ele>1183.708</ele>
        <time>2022-01-27T16:41:55Z</time>
      </trkpt>
      <trkpt lat="43.253369" lon="-5.009156">
        <ele>1180.821</ele>
        <time>2022-01-27T16:42:35Z</time>
      </trkpt>
      <trkpt lat="43.253561" lon="-5.009531">
        <ele>1177.165</ele>
        <time>2022-01-27T16:43:15Z</time>
      </trkpt>
      <trkpt lat="43.253633" lon="-5.009595">
        <ele>1174.269</ele>
        <time>2022-01-27T16:43:55Z</time>
      </trkpt>
      <trkpt lat="43.253663" lon="-5.009174">
        <ele>1171.736</ele>
        <time>2022-01-27T16:44:35Z</time>
      </trkpt>
      <trkpt lat="43.253772" lon="-5.008839">
        <ele>1168.773</ele>
        <time>2022-01-27T16:45:15Z</time>
      </trkpt>
      <trkpt lat="43.253993" lon="-5.008825">
        <ele>1163.652</ele>
        <time>2022-01-27T16:45:55Z</time>
      </trkpt>
      <trkpt lat="43.254062" lon="-5.009001">
        <ele>1163.157</ele>
        <time>2022-01-27T16:46:35Z</time>
      </trkpt>
      <trkpt lat="43.253959" lon="-5.009219">
        <ele>1164.413</ele>
        <time>2022-01-27T16:47:15Z</time>
      </trkpt>
      <trkpt lat="43.254040" lon="-5.009884">
        <ele>1158.559</ele>
        <time>2022-01-27T16:47:55Z</time>
      </trkpt>
      <trkpt lat="43.254269" lon="-5.010126">
        <ele>1153.003</ele>
        <time>2022-01-27T16:48:35Z</time>
      </trkpt>
      <trkpt lat="43.254606" lon="-5.010461">
        <ele>1147.423</ele>
        <time>2022-01-27T16:49:15Z</time>
      </trkpt>
      <trkpt lat="43.254830" lon="-5.010653">
        <ele>1143.308</ele>
        <time>2022-01-27T16:49:55Z</time>
      </trkpt>
      <trkpt lat="43.254962" lon="-5.010765">
        <ele>1141.144</ele>
        <time>2022-01-27T16:50:35Z</time>
      </trkpt>
      <trkpt lat="43.255128" lon="-5.010848">
        <ele>1138.088</ele>
        <time>2022-01-27T16:51:15Z</time>
      </trkpt>
      <trkpt lat="43.255167" lon="-5.010673">
        <ele>1135.852</ele>
        <time>2022-01-27T16:51:55Z</time>
      </trkpt>
      <trkpt lat="43.255110" lon="-5.010305">
        <ele>1132.819</ele>
        <time>2022-01-27T16:52:35Z</time>
      </trkpt>
      <trkpt lat="43.255066" lon="-5.009978">
        <ele>1129.266</ele>
        <time>2022-01-27T16:53:15Z</time>
      </trkpt>
      <trkpt lat="43.255009" lon="-5.009785">
        <ele>1127.685</ele>
        <time>2022-01-27T16:53:55Z</time>
      </trkpt>
      <trkpt lat="43.255135" lon="-5.009640">
        <ele>1124.020</ele>
        <time>2022-01-27T16:54:35Z</time>
      </trkpt>
      <trkpt lat="43.255286" lon="-5.009645">
        <ele>1121.586</ele>
        <time>2022-01-27T16:55:15Z</time>
      </trkpt>
      <trkpt lat="43.255477" lon="-5.009685">
        <ele>1118.611</ele>
        <time>2022-01-27T16:55:55Z</time>
      </trkpt>
      <trkpt lat="43.255583" lon="-5.009571">
        <ele>1114.321</ele>
        <time>2022-01-27T16:56:35Z</time>
      </trkpt>
      <trkpt lat="43.255534" lon="-5.009376">
        <ele>1111.403</ele>
        <time>2022-01-27T16:57:15Z</time>
      </trkpt>
      <trkpt lat="43.255381" lon="-5.009420">
        <ele>1115.308</ele>
        <time>2022-01-27T16:57:55Z</time>
      </trkpt>
      <trkpt lat="43.255343" lon="-5.009227">
        <ele>1112.310</ele>
        <time>2022-01-27T16:58:35Z</time>
      </trkpt>
      <trkpt lat="43.255276" lon="-5.009015">
        <ele>1108.844</ele>
        <time>2022-01-27T16:59:15Z</time>
      </trkpt>
      <trkpt lat="43.255217" lon="-5.008900">
        <ele>1110.228</ele>
        <time>2022-01-27T16:59:55Z</time>
      </trkpt>
      <trkpt lat="43.255204" lon="-5.008625">
        <ele>1107.265</ele>
        <time>2022-01-27T17:00:35Z</time>
      </trkpt>
      <trkpt lat="43.255270" lon="-5.008491">
        <ele>1102.562</ele>
        <time>2022-01-27T17:01:15Z</time>
      </trkpt>
      <trkpt lat="43.255329" lon="-5.008301">
        <ele>1099.171</ele>
        <time>2022-01-27T17:01:55Z</time>
      </trkpt>
      <trkpt lat="43.255263" lon="-5.008002">
        <ele>1099.016</ele>
        <time>2022-01-27T17:02:35Z</time>
      </trkpt>
      <trkpt lat="43.255189" lon="-5.007771">
        <ele>1099.712</ele>
        <time>2022-01-27T17:03:15Z</time>
      </trkpt>
      <trkpt lat="43.255188" lon="-5.007465">
        <ele>1094.738</ele>
        <time>2022-01-27T17:03:55Z</time>
      </trkpt>
      <trkpt lat="43.255170" lon="-5.007006">
        <ele>1089.770</ele>
        <time>2022-01-27T17:04:35Z</time>
      </trkpt>
      <trkpt lat="43.255151" lon="-5.006852">
        <ele>1088.517</ele>
        <time>2022-01-27T17:05:15Z</time>
      </trkpt>
      <trkpt lat="43.255034" lon="-5.006539">
        <ele>1088.608</ele>
        <time>2022-01-27T17:05:55Z</time>
      </trkpt>
      <trkpt lat="43.255006" lon="-5.006263">
        <ele>1086.352</ele>
        <time>2022-01-27T17:06:35Z</time>
      </trkpt>
      <trkpt lat="43.254992" lon="-5.006045">
        <ele>1085.086</ele>
        <time>2022-01-27T17:07:15Z</time>
      </trkpt>
      <trkpt lat="43.255187" lon="-5.006327">
        <ele>1078.440</ele>
        <time>2022-01-27T17:07:55Z</time>
      </trkpt>
      <trkpt lat="43.255406" lon="-5.006623">
        <ele>1074.687</ele>
        <time>2022-01-27T17:08:35Z</time>
      </trkpt>
      <trkpt lat="43.255546" lon="-5.006816">
        <ele>1071.014</ele>
        <time>2022-01-27T17:09:15Z</time>
      </trkpt>
      <trkpt lat="43.255636" lon="-5.006974">
        <ele>1070.543</ele>
        <time>2022-01-27T17:09:55Z</time>
      </trkpt>
      <trkpt lat="43.255737" lon="-5.006963">
        <ele>1068.188</ele>
        <time>2022-01-27T17:10:35Z</time>
      </trkpt>
      <trkpt lat="43.256076" lon="-5.007365">
        <ele>1063.424</ele>
        <time>2022-01-27T17:11:15Z</time>
      </trkpt>
      <trkpt lat="43.256356" lon="-5.007661">
        <ele>1062.143</ele>
        <time>2022-01-27T17:11:55Z</time>
      </trkpt>
      <trkpt lat="43.256716" lon="-5.007729">
        <ele>1066.564</ele>
        <time>2022-01-27T17:12:35Z</time>
      </trkpt>
      <trkpt lat="43.257015" lon="-5.007973">
        <ele>1072.210</ele>
        <time>2022-01-27T17:13:15Z</time>
      </trkpt>
      <trkpt lat="43.257061" lon="-5.008128">
        <ele>1071.508</ele>
        <time>2022-01-27T17:13:55Z</time>
      </trkpt>
      <trkpt lat="43.257155" lon="-5.008397">
        <ele>1068.963</ele>
        <time>2022-01-27T17:14:35Z</time>
      </trkpt>
      <trkpt lat="43.257283" lon="-5.008460">
        <ele>1069.257</ele>
        <time>2022-01-27T17:15:15Z</time>
      </trkpt>
      <trkpt lat="43.257521" lon="-5.008609">
        <ele>1069.091</ele>
        <time>2022-01-27T17:15:55Z</time>
      </trkpt>
      <trkpt lat="43.257808" lon="-5.008716">
        <ele>1069.658</ele>
        <time>2022-01-27T17:16:35Z</time>
      </trkpt>
      <trkpt lat="43.257936" lon="-5.008887">
        <ele>1069.075</ele>
        <time>2022-01-27T17:17:15Z</time>
      </trkpt>
      <trkpt lat="43.258183" lon="-5.009129">
        <ele>1067.214</ele>
        <time>2022-01-27T17:17:55Z</time>
      </trkpt>
      <trkpt lat="43.258437" lon="-5.009370">
        <ele>1066.369</ele>
        <time>2022-01-27T17:18:35Z</time>
      </trkpt>
      <trkpt lat="43.258732" lon="-5.009613">
        <ele>1070.735</ele>
        <time>2022-01-27T17:19:15Z</time>
      </trkpt>
      <trkpt lat="43.259051" lon="-5.009704">
        <ele>1071.393</ele>
        <time>2022-01-27T17:19:55Z</time>
      </trkpt>
      <trkpt lat="43.259227" lon="-5.009586">
        <ele>1069.965</ele>
        <time>2022-01-27T17:20:35Z</time>
      </trkpt>
      <trkpt lat="43.259444" lon="-5.009516">
        <ele>1069.521</ele>
        <time>2022-01-27T17:21:15Z</time>
      </trkpt>
      <trkpt lat="43.259720" lon="-5.009683">
        <ele>1066.508</ele>
        <time>2022-01-27T17:21:55Z</time>
      </trkpt>
      <trkpt lat="43.259983" lon="-5.009718">
        <ele>1067.048</ele>
        <time>2022-01-27T17:22:35Z</time>
      </trkpt>
      <trkpt lat="43.260313" lon="-5.009785">
        <ele>1063.752</ele>
        <time>2022-01-27T17:23:15Z</time>
      </trkpt>
      <trkpt lat="43.260448" lon="-5.009650">
        <ele>1065.196</ele>
        <time>2022-01-27T17:23:55Z</time>
      </trkpt>
      <trkpt lat="43.260532" lon="-5.009354">
        <ele>1069.493</ele>
        <time>2022-01-27T17:24:35Z</time>
      </trkpt>
      <trkpt lat="43.260707" lon="-5.009268">
        <ele>1069.770</ele>
        <time>2022-01-27T17:25:15Z</time>
      </trkpt>
      <trkpt lat="43.260860" lon="-5.009239">
        <ele>1069.569</ele>
        <time>2022-01-27T17:25:55Z</time>
      </trkpt>
      <trkpt lat="43.261208" lon="-5.009233">
        <ele>1070.984</ele>
        <time>2022-01-27T17:26:35Z</time>
      </trkpt>
    </trkseg>
  </trk></gpx>